Whiteland, Indiana
Current Conditions -  °F | °C
As of 1:54 AM on Sunday 26 Oct 2014 (Local Time) from KIND Reporting Station
Clear Clear  
Wind Chill: 53°   Ceiling: Unl
Heat Index: 53°   Visibility: 10mi
Dew Point: 34°   Wind: 9mph
Humidity: 48%   Direction: 320°NW
Pressure: 29.97"   Gusts: NA
Location:  39.55°N, 86.08°W
Report Text: KIND 260554Z AUTO 32008KT 10SM CLR 12/01 A2997 RMK AO2 SLP145 T01170011 10178 20117 51006 TSNO
Loading
Personal Weather Stations






























Interactive Weather Map
Tropical Storm Tracking
New forecast layout! Learn more

10-Day Weather Forecast

Advertisements
Track Severe Weather on mobile